.
WxDataArchive / Data Records for 2010-01-24
2010-01-23 January 2010 2010-01-25

Data Records for Sunday, 24 January 2010

Time	Temp	Chill	HIndex	Humid	Dewpt	 Wind 	HiWind	WindDir	Rain 	Barom 
-----	----	-----	------	-----	-----	------	------	-------	-----	----- 
00:00	38.9	38.9	38.9	95	37.6	1	2	90	0.00	29.712 
00:05	39.1	39.1	39.1	95	37.8	1	3	90	0.00	29.712 
00:10	38.9	38.9	38.9	95	37.6	1	3	112	0.00	29.712 
00:15	38.8	38.8	38.8	95	37.5	1	5	112	0.00	29.707 
00:20	38.8	38.8	38.8	95	37.5	2	5	90	0.00	29.707 
00:25	38.8	38.8	38.8	95	37.5	2	5	90	0.00	29.707 
00:30	38.8	38.8	38.8	95	37.5	2	4	112	0.00	29.688 
00:35	38.8	38.8	38.8	95	37.5	2	5	90	0.00	29.688 
00:40	38.6	38.6	38.6	95	37.3	2	4	90	0.00	29.688 
00:45	38.6	38.6	38.6	95	37.3	2	5	90	0.00	29.676 
00:50	38.6	38.6	38.6	95	37.3	2	5	90	0.00	29.676 
00:55	38.8	38.8	38.8	95	37.5	2	5	90	0.00	29.676 
01:00	38.8	38.8	38.8	95	37.5	3	6	90	0.00	29.664 
01:05	38.6	38.6	38.6	95	37.3	3	6	90	0.00	29.664 
01:10	38.8	38.8	38.8	95	37.5	3	5	90	0.00	29.664 
01:15	38.6	38.6	38.6	94	37.0	3	6	90	0.00	29.649 
01:20	38.6	38.6	38.6	94	37.0	3	7	90	0.00	29.649 
01:25	38.5	38.5	38.5	94	36.9	3	6	90	0.00	29.649 
01:30	38.5	38.5	38.5	94	36.9	3	5	90	0.00	29.637 
01:35	38.5	38.5	38.5	94	36.9	2	4	90	0.00	29.637 
01:40	38.6	38.6	38.6	94	37.0	3	5	112	0.00	29.637 
01:45	38.8	38.8	38.8	94	37.2	3	7	90	0.00	29.616 
01:50	38.8	38.8	38.8	94	37.2	3	5	90	0.00	29.616 
01:55	38.8	35.9	38.8	94	37.2	4	6	112	0.00	29.616 
02:00	38.8	38.8	38.8	94	37.2	3	6	112	0.00	29.599 
02:05	38.8	38.8	38.8	94	37.2	3	7	90	0.00	29.599 
02:10	38.9	38.9	38.9	94	37.3	3	7	90	0.00	29.599 
02:15	39.1	39.1	39.1	93	37.2	2	5	112	0.00	29.624 
02:20	39.3	39.3	39.3	93	37.4	2	5	90	0.00	29.624 
02:25	39.3	39.3	39.3	93	37.4	3	7	112	0.00	29.624 
02:30	39.3	39.3	39.3	93	37.4	3	7	112	0.00	29.619 
02:35	39.3	39.3	39.3	92	37.2	3	5	112	0.00	29.619 
02:40	39.2	39.2	39.2	92	37.1	2	5	112	0.00	29.619 
02:45	39.2	39.2	39.2	92	37.1	3	7	112	0.00	29.613 
02:50	39.3	36.5	39.3	92	37.2	4	7	112	0.00	29.613 
02:55	39.3	39.3	39.3	92	37.2	3	7	90	0.00	29.613 
03:00	39.3	39.3	39.3	92	37.2	3	6	90	0.00	29.596 
03:05	39.5	36.7	39.5	92	37.4	4	9	90	0.00	29.596 
03:10	39.5	39.5	39.5	92	37.4	3	7	90	0.00	29.596 
03:15	39.5	39.5	39.5	92	37.4	3	7	112	0.00	29.574 
03:20	39.6	36.9	39.6	92	37.5	4	10	112	0.00	29.574 
03:25	39.6	39.6	39.6	92	37.5	3	6	90	0.00	29.574 
03:30	39.8	39.8	39.8	91	37.4	3	7	90	0.00	29.552 
03:35	39.8	39.8	39.8	91	37.4	3	7	112	0.00	29.552 
03:40	39.9	37.2	39.9	91	37.5	4	7	112	0.00	29.552 
03:45	40.1	40.1	40.1	91	37.7	2	6	112	0.00	29.563 
03:50	40.1	40.1	40.1	90	37.4	2	6	90	0.00	29.563 
03:55	40.1	40.1	40.1	90	37.4	2	5	112	0.00	29.563 
04:00	40.1	40.1	40.1	90	37.4	3	6	112	0.00	29.543 
04:05	39.9	39.9	39.9	90	37.2	3	6	112	0.00	29.543 
04:10	40.1	40.1	40.1	90	37.4	3	5	112	0.00	29.543 
04:15	40.2	40.2	40.2	90	37.5	3	5	112	0.00	29.533 
04:20	40.3	40.3	40.3	90	37.6	1	4	112	0.00	29.533 
04:25	40.3	40.3	40.3	90	37.6	0	2	112	0.00	29.533 
04:30	40.6	40.6	40.6	90	37.9	2	4	112	0.00	29.532 
04:35	40.9	40.9	40.9	89	37.9	2	4	112	0.00	29.532 
04:40	41.2	41.2	41.2	89	38.2	1	3	135	0.00	29.532 
04:45	41.8	41.8	41.8	89	38.8	2	5	112	0.00	29.539 
04:50	42.6	42.6	42.6	87	39.0	2	7	112	0.00	29.539 
04:55	43.2	43.2	43.2	86	39.3	2	4	68	0.00	29.539 
05:00	43.6	43.6	43.6	86	39.7	2	5	90	0.03	29.541 
05:05	43.8	43.8	43.8	86	39.9	3	10	135	0.02	29.541 
05:10	43.8	43.8	43.8	87	40.2	2	6	68	0.01	29.541 
05:15	43.6	43.6	43.6	88	40.3	3	7	90	0.03	29.544 
05:20	43.5	43.5	43.5	89	40.5	2	6	112	0.01	29.544 
05:25	43.2	43.2	43.2	89	40.2	2	5	90	0.02	29.544 
05:30	43.1	43.1	43.1	90	40.4	3	7	90	0.03	29.536 
05:35	43.1	43.1	43.1	91	40.7	2	5	90	0.01	29.536 
05:40	42.9	42.9	42.9	91	40.5	2	5	90	0.01	29.536 
05:45	42.8	42.8	42.8	92	40.6	3	5	90	0.01	29.531 
05:50	42.8	42.8	42.8	92	40.6	2	6	112	0.01	29.531 
05:55	42.6	42.6	42.6	92	40.4	2	5	90	0.01	29.531 
06:00	42.6	42.6	42.6	92	40.4	2	5	45	0.01	29.515 
06:05	42.5	42.5	42.5	92	40.3	2	7	112	0.00	29.515 
06:10	42.3	42.3	42.3	92	40.1	2	5	90	0.00	29.515 
06:15	42.2	42.2	42.2	93	40.3	2	5	112	0.00	29.504 
06:20	42.2	42.2	42.2	93	40.3	2	5	112	0.00	29.504 
06:25	42.1	42.1	42.1	93	40.2	2	5	90	0.00	29.504 
06:30	41.9	41.9	41.9	93	40.0	3	11	112	0.00	29.487 
06:35	41.9	41.9	41.9	93	40.0	3	6	90	0.00	29.487 
06:40	41.9	41.9	41.9	93	40.0	2	6	112	0.00	29.487 
06:45	41.9	41.9	41.9	93	40.0	3	6	90	0.00	29.487 
06:50	42.1	42.1	42.1	93	40.2	2	7	112	0.00	29.487 
06:55	42.1	42.1	42.1	93	40.2	3	6	90	0.00	29.487 
07:00	42.3	42.3	42.3	93	40.4	3	7	90	0.00	29.482 
07:05	42.3	42.3	42.3	93	40.4	3	8	90	0.00	29.482 
07:10	42.5	40.2	42.5	93	40.6	4	11	90	0.00	29.482 
07:15	42.6	42.6	42.6	93	40.7	3	6	90	0.00	29.474 
07:20	42.8	42.8	42.8	93	40.9	3	11	90	0.00	29.474 
07:25	42.9	42.9	42.9	93	41.0	3	7	90	0.00	29.474 
07:30	43.2	40.2	43.2	93	41.3	5	11	90	0.00	29.463 
07:35	43.3	41.1	43.3	93	41.4	4	10	90	0.00	29.463 
07:40	43.5	43.5	43.5	92	41.3	3	10	90	0.00	29.463 
07:45	43.8	41.7	43.8	92	41.6	4	11	90	0.00	29.449 
07:50	43.9	40.4	43.9	92	41.7	6	15	90	0.00	29.449 
07:55	44.2	40.8	44.2	92	42.0	6	14	90	0.00	29.449 
08:00	44.3	42.3	44.3	91	41.8	4	10	90	0.00	29.438 
08:05	44.5	42.5	44.5	91	42.0	4	7	90	0.00	29.438 
08:10	44.5	44.5	44.5	91	42.0	3	8	90	0.00	29.438 
08:15	44.8	42.1	44.8	91	42.3	5	12	112	0.00	29.469 
08:20	45.1	42.5	45.1	90	42.3	5	11	90	0.00	29.469 
08:25	45.2	43.3	45.2	90	42.4	4	12	90	0.00	29.469 
08:30	45.5	42.9	45.5	90	42.7	5	12	90	0.00	29.475 
08:35	45.8	44.0	45.8	89	42.7	4	13	90	0.00	29.475 
08:40	45.8	45.8	45.8	89	42.7	3	7	112	0.00	29.475 
08:45	46.0	43.5	46.0	89	42.9	5	11	90	0.00	29.467 
08:50	46.1	44.4	46.1	88	42.7	4	12	112	0.00	29.467 
08:55	46.2	44.5	46.2	88	42.8	4	10	90	0.00	29.467 
09:00	46.2	43.8	46.2	88	42.8	5	13	90	0.00	29.461 
09:05	46.2	44.5	46.2	88	42.8	4	11	90	0.00	29.461 
09:10	46.2	44.5	46.2	88	42.8	4	10	90	0.01	29.461 
09:15	46.1	44.4	46.1	89	43.0	4	11	90	0.00	29.450 
09:20	46.0	44.2	46.0	90	43.2	4	9	90	0.00	29.450 
09:25	46.0	46.0	46.0	90	43.2	3	8	90	0.00	29.450 
09:30	45.8	43.3	45.8	90	43.0	5	14	68	0.00	29.447 
09:35	45.8	43.3	45.8	90	43.0	5	10	90	0.00	29.447 
09:40	45.8	43.3	45.8	90	43.0	5	9	112	0.00	29.447 
09:45	46.0	44.2	46.0	90	43.2	4	10	90	0.00	29.456 
09:50	46.0	46.0	46.0	90	43.2	3	8	90	0.00	29.456 
09:55	46.0	44.2	46.0	91	43.5	4	9	90	0.01	29.456 
10:00	46.1	43.6	46.1	91	43.6	5	12	90	0.00	29.460 
10:05	46.4	44.0	46.4	91	43.9	5	11	90	0.00	29.460 
10:10	46.5	44.1	46.5	90	43.7	5	10	90	0.00	29.460 
10:15	46.5	44.8	46.5	91	44.0	4	8	90	0.00	29.470 
10:20	46.5	44.8	46.5	91	44.0	4	12	90	0.00	29.470 
10:25	46.7	44.3	46.7	91	44.2	5	17	90	0.01	29.470 
10:30	46.7	45.1	46.7	91	44.2	4	10	90	0.00	29.467 
10:35	46.7	45.1	46.7	91	44.2	4	11	90	0.00	29.467 
10:40	46.7	46.7	46.7	91	44.2	3	7	90	0.00	29.467 
10:45	46.7	44.3	46.7	91	44.2	5	10	90	0.00	29.446 
10:50	46.7	45.1	46.7	91	44.2	4	7	90	0.00	29.446 
10:55	46.7	45.1	46.7	91	44.2	4	10	112	0.00	29.446 
11:00	46.7	46.7	46.7	91	44.2	2	6	90	0.00	29.430 
11:05	47.0	47.0	47.0	91	44.5	3	6	112	0.00	29.430 
11:10	47.1	47.1	47.1	91	44.6	3	6	112	0.00	29.430 
11:15	47.3	47.3	47.3	91	44.8	3	7	90	0.00	29.440 
11:20	47.4	47.4	47.4	91	44.9	3	10	90	0.00	29.440 
11:25	47.6	46.1	47.6	91	45.1	4	10	90	0.00	29.440 
11:30	47.7	46.2	47.7	90	44.9	4	14	90	0.00	29.443 
11:35	47.9	46.4	47.9	90	45.1	4	12	90	0.00	29.443 
11:40	48.0	46.6	48.0	90	45.2	4	10	90	0.00	29.443 
11:45	48.2	48.2	48.2	90	45.4	3	7	90	0.00	29.426 
11:50	48.3	46.9	48.3	90	45.5	4	8	90	0.00	29.426 
11:55	48.5	48.5	48.5	90	45.7	3	9	90	0.00	29.426 
12:00	48.6	48.6	48.6	89	45.5	3	6	90	0.00	29.402 
12:05	48.9	47.6	48.9	89	45.8	4	10	90	0.00	29.402 
12:10	49.4	48.2	49.4	89	46.3	4	9	90	0.00	29.402 
12:15	49.8	48.0	49.8	88	46.4	5	13	90	0.00	29.396 
12:20	49.9	48.1	49.9	88	46.5	5	10	90	0.00	29.396 
12:25	50.1	50.1	50.1	88	46.7	4	13	90	0.00	29.396 
12:30	50.1	50.1	50.1	87	46.4	4	13	90	0.00	29.397 
12:35	50.2	50.2	50.2	88	46.8	3	10	90	0.00	29.397 
12:40	50.4	50.4	50.4	87	46.7	4	10	90	0.00	29.397 
12:45	50.2	50.2	50.2	88	46.8	4	9	90	0.00	29.388 
12:50	49.9	49.9	49.9	89	46.8	3	9	90	0.00	29.388 
12:55	50.1	50.1	50.1	89	47.0	3	11	90	0.00	29.388 
13:00	50.2	50.2	50.2	89	47.1	3	10	90	0.00	29.399 
13:05	50.4	50.4	50.4	88	47.0	3	11	90	0.00	29.399 
13:10	50.4	50.4	50.4	87	46.7	3	9	112	0.00	29.399 
13:15	50.4	50.4	50.4	87	46.7	2	5	90	0.00	29.399 
13:20	50.5	50.5	50.5	87	46.8	3	10	112	0.00	29.399 
13:25	50.5	50.5	50.5	87	46.8	4	10	90	0.00	29.399 
13:30	51.1	51.1	51.1	88	47.7	3	9	0	0.00	29.382 
13:35	51.6	51.6	51.6	87	47.9	3	10	90	0.00	29.382 
13:40	51.7	51.7	51.7	85	47.3	2	6	68	0.00	29.382 
13:45	51.7	51.7	51.7	85	47.3	3	8	112	0.00	29.376 
13:50	51.9	51.9	51.9	85	47.5	3	9	90	0.00	29.376 
13:55	51.9	51.9	51.9	84	47.2	4	9	68	0.00	29.376 
14:00	51.9	51.9	51.9	85	47.5	2	5	112	0.00	29.368 
14:05	51.7	51.7	51.7	85	47.3	2	4	68	0.00	29.368 
14:10	51.7	51.7	51.7	86	47.6	2	4	90	0.00	29.368 
14:15	51.7	51.7	51.7	86	47.6	2	6	68	0.00	29.357 
14:20	51.6	51.6	51.6	86	47.5	3	12	90	0.00	29.357 
14:25	51.7	51.7	51.7	86	47.6	2	7	90	0.00	29.357 
14:30	51.7	51.7	51.7	86	47.6	2	10	112	0.00	29.354 
14:35	51.7	51.7	51.7	86	47.6	2	6	90	0.00	29.354 
14:40	51.7	51.7	51.7	86	47.6	2	5	90	0.00	29.354 
14:45	51.7	51.7	51.7	86	47.6	3	11	90	0.00	29.353 
14:50	51.7	51.7	51.7	86	47.6	2	5	112	0.00	29.353 
14:55	51.7	51.7	51.7	86	47.6	2	6	90	0.00	29.353 
15:00	51.7	51.7	51.7	86	47.6	3	7	90	0.00	29.348 
15:05	52.0	52.0	52.0	85	47.6	3	9	135	0.00	29.348 
15:10	52.2	52.2	52.2	85	47.8	1	5	90	0.00	29.348 
15:15	52.2	52.2	52.2	85	47.8	2	5	292	0.00	29.350 
15:20	52.2	52.2	52.2	85	47.8	3	8	112	0.00	29.350 
15:25	52.0	52.0	52.0	84	47.3	3	10	90	0.00	29.350 
15:30	52.0	52.0	52.0	85	47.6	1	6	112	0.00	29.346 
15:35	52.2	52.2	52.2	85	47.8	2	4	112	0.00	29.346 
15:40	52.2	52.2	52.2	84	47.5	2	6	90	0.00	29.346 
15:45	52.2	52.2	52.2	84	47.5	2	6	90	0.00	29.337 
15:50	52.2	52.2	52.2	84	47.5	2	5	90	0.00	29.337 
15:55	52.0	52.0	52.0	84	47.3	1	3	112	0.00	29.337 
16:00	51.9	51.9	51.9	84	47.2	1	3	112	0.00	29.342 
16:05	51.9	51.9	51.9	85	47.5	0	3	225	0.00	29.342 
16:10	51.9	51.9	51.9	85	47.5	0	2	225	0.00	29.342 
16:15	51.9	51.9	51.9	85	47.5	1	4	112	0.00	29.342 
16:20	51.9	51.9	51.9	85	47.5	1	5	90	0.00	29.342 
16:25	51.9	51.9	51.9	85	47.5	2	4	68	0.00	29.342 
16:30	51.7	51.7	51.7	86	47.6	2	6	90	0.00	29.345 
16:35	51.6	51.6	51.6	87	47.9	1	5	22	0.00	29.345 
16:40	51.3	51.3	51.3	88	47.9	1	4	225	0.00	29.345 
16:45	51.0	51.0	51.0	88	47.6	2	7	225	0.00	29.353 
16:50	50.7	50.7	50.7	89	47.6	1	4	248	0.00	29.353 
16:55	50.4	50.4	50.4	89	47.3	1	3	270	0.00	29.353 
17:00	50.1	50.1	50.1	89	47.0	0	2	270	0.00	29.359 
17:05	49.8	49.8	49.8	89	46.7	0	2	248	0.00	29.359 
17:10	49.5	49.5	49.5	89	46.4	0	2	0	0.00	29.359 
17:15	49.2	49.2	49.2	88	45.8	0	2	225	0.01	29.349 
17:20	48.9	48.9	48.9	89	45.8	0	1	225	0.00	29.349 
17:25	48.8	48.8	48.8	89	45.7	0	2	225	0.00	29.349 
17:30	48.6	48.6	48.6	89	45.5	1	3	225	0.00	29.356 
17:35	48.3	48.3	48.3	89	45.2	0	2	68	0.00	29.356 
17:40	48.0	48.0	48.0	89	44.9	0	1	68	0.00	29.356 
17:45	47.9	47.9	47.9	89	44.8	0	2	68	0.00	29.356 
17:50	47.6	47.6	47.6	89	44.5	0	1	68	0.00	29.356 
17:55	47.4	47.4	47.4	90	44.6	0	1	68	0.00	29.356 
18:00	47.4	47.4	47.4	90	44.6	0	1	68	0.00	29.363 
18:05	47.3	47.3	47.3	91	44.8	0	2	68	0.00	29.363 
18:10	47.3	47.3	47.3	91	44.8	0	3	90	0.00	29.363 
18:15	47.3	47.3	47.3	91	44.8	0	2	90	0.01	29.354 
18:20	47.1	47.1	47.1	91	44.6	0	1	90	0.00	29.354 
18:25	47.1	47.1	47.1	92	44.9	0	3	90	0.02	29.354 
18:30	47.1	47.1	47.1	92	44.9	0	2	270	0.02	29.366 
18:35	47.3	47.3	47.3	92	45.1	1	4	45	0.02	29.366 
18:40	47.3	47.3	47.3	93	45.4	1	2	248	0.02	29.366 
18:45	47.1	47.1	47.1	93	45.2	0	1	225	0.01	29.359 
18:50	47.0	47.0	47.0	93	45.1	1	3	90	0.01	29.359 
18:55	47.0	47.0	47.0	93	45.1	1	2	90	0.00	29.359 
19:00	46.8	46.8	46.8	93	44.9	1	4	135	0.00	29.357 
19:05	46.7	46.7	46.7	93	44.8	0	2	135	0.00	29.357 
19:10	46.4	46.4	46.4	93	44.5	0	1	135	0.00	29.357 
19:15	46.1	46.1	46.1	93	44.2	0	1	135	0.00	29.351 
19:20	46.0	46.0	46.0	93	44.1	0	0	---	0.00	29.351 
19:25	45.8	45.8	45.8	93	43.9	0	0	---	0.00	29.351 
19:30	45.8	45.8	45.8	93	43.9	0	0	---	0.00	29.351 
19:35	45.7	45.7	45.7	94	44.1	0	0	---	0.00	29.351 
19:40	45.7	45.7	45.7	94	44.1	0	0	---	0.00	29.351 
19:45	45.7	45.7	45.7	94	44.1	0	1	135	0.00	29.346 
19:50	45.5	45.5	45.5	94	43.9	0	1	135	0.00	29.346 
19:55	45.4	45.4	45.4	94	43.8	0	1	135	0.00	29.346 
20:00	45.4	45.4	45.4	94	43.8	0	1	135	0.00	29.348 
20:05	45.4	45.4	45.4	94	43.8	0	0	---	0.00	29.348 
20:10	45.4	45.4	45.4	94	43.8	0	1	135	0.00	29.348 
20:15	45.4	45.4	45.4	94	43.8	0	1	135	0.00	29.343 
20:20	45.4	45.4	45.4	94	43.8	0	2	135	0.00	29.343 
20:25	45.4	45.4	45.4	94	43.8	0	2	202	0.00	29.343 
20:30	45.4	45.4	45.4	94	43.8	0	3	225	0.00	29.340 
20:35	45.4	45.4	45.4	95	44.1	1	3	270	0.00	29.340 
20:40	45.4	45.4	45.4	94	43.8	0	2	270	0.00	29.340 
20:45	45.4	45.4	45.4	95	44.1	1	5	270	0.00	29.339 
20:50	45.4	45.4	45.4	95	44.1	1	3	248	0.00	29.339 
20:55	45.4	45.4	45.4	95	44.1	0	3	248	0.00	29.339 
21:00	45.2	45.2	45.2	94	43.6	1	6	248	0.00	29.340 
21:05	45.1	45.1	45.1	94	43.5	1	2	248	0.00	29.340 
21:10	44.8	44.8	44.8	94	43.2	1	3	248	0.00	29.340 
21:15	44.5	44.5	44.5	94	42.9	2	5	248	0.00	29.336 
21:20	44.1	44.1	44.1	94	42.5	1	5	270	0.00	29.336 
21:25	43.8	43.8	43.8	94	42.2	2	4	270	0.00	29.336 
21:30	43.6	43.6	43.6	94	42.0	1	3	270	0.00	29.338 
21:35	43.5	43.5	43.5	94	41.9	2	7	270	0.00	29.338 
21:40	43.1	43.1	43.1	93	41.2	2	5	270	0.00	29.338 
21:45	42.6	42.6	42.6	93	40.7	1	5	270	0.00	29.338 
21:50	42.1	42.1	42.1	93	40.2	1	3	248	0.00	29.338 
21:55	41.8	41.8	41.8	93	39.9	1	4	248	0.00	29.338 
22:00	41.5	41.5	41.5	92	39.4	2	6	248	0.00	29.343 
22:05	41.1	41.1	41.1	92	39.0	2	4	270	0.00	29.343 
22:10	40.8	40.8	40.8	92	38.7	2	4	248	0.00	29.343 
22:15	40.6	40.6	40.6	92	38.5	1	4	225	0.00	29.344 
22:20	40.3	40.3	40.3	92	38.2	2	6	248	0.00	29.344 
22:25	40.1	40.1	40.1	92	38.0	2	5	248	0.00	29.344 
22:30	39.9	39.9	39.9	92	37.8	2	5	248	0.00	29.345 
22:35	39.6	39.6	39.6	92	37.5	1	4	248	0.00	29.345 
22:40	39.5	39.5	39.5	92	37.4	1	5	248	0.00	29.345 
22:45	39.3	39.3	39.3	92	37.2	2	5	248	0.00	29.345 
22:50	39.1	39.1	39.1	92	37.0	2	4	248	0.00	29.345 
22:55	38.9	38.9	38.9	92	36.8	1	3	248	0.00	29.345 
23:00	38.8	38.8	38.8	92	36.7	2	4	248	0.00	29.348 
23:05	38.8	38.8	38.8	92	36.7	1	4	248	0.00	29.348 
23:10	38.8	38.8	38.8	92	36.7	2	3	270	0.00	29.348 
23:15	38.5	38.5	38.5	92	36.4	2	5	248	0.00	29.339 
23:20	38.5	38.5	38.5	92	36.4	2	3	248	0.00	29.339 
23:25	38.3	38.3	38.3	92	36.2	2	4	248	0.00	29.339 
23:30	38.2	38.2	38.2	92	36.1	2	4	270	0.00	29.341 
23:35	38.2	38.2	38.2	91	35.8	2	5	292	0.00	29.341 
23:40	38.0	38.0	38.0	91	35.6	1	3	248	0.00	29.341 
23:45	38.0	38.0	38.0	91	35.6	1	3	315	0.00	29.341 
23:50	38.0	38.0	38.0	91	35.6	1	4	248	0.00	29.341 
23:55	37.9	37.9	37.9	90	35.2	2	3	248	0.00	29.341 

CoCoRaHS
IN-AL-39
A2 Web Hosting
Creative Commons License
GoDaddy
search engine by freefind advanced

loaded 2018-11-13 23:44:57 • last modified 2010-11-18 10:43:29
Privacy PolicyDisclaimer
• wx.awcolley.com is powered by PmWiki v.2002016 •
• all content (unless otherwise noted) © 2018 A W Colley